createdAt,value
2019-03-25T00:00:08.893Z,21.90
2019-03-25T00:02:14.366Z,20.50
2019-03-25T00:04:19.507Z,20.17
2019-03-25T00:06:24.839Z,20.60
2019-03-25T00:08:30.004Z,21.17
2019-03-25T00:10:35.138Z,18.60
2019-03-25T00:12:40.149Z,20.53
2019-03-25T00:14:46.758Z,19.30
2019-03-25T00:16:51.639Z,19.83
2019-03-25T00:18:57.824Z,19.23
2019-03-25T00:21:03.281Z,17.67
2019-03-25T00:23:08.478Z,18.17
2019-03-25T00:25:13.386Z,18.87
2019-03-25T00:27:18.968Z,19.60
2019-03-25T00:29:23.924Z,18.77
2019-03-25T00:31:29.033Z,19.17
2019-03-25T00:33:34.120Z,18.20
2019-03-25T00:35:45.639Z,18.30
2019-03-25T00:37:50.600Z,17.80
2019-03-25T00:39:55.448Z,17.80
2019-03-25T00:42:00.227Z,17.23
2019-03-25T00:44:05.217Z,17.10
2019-03-25T00:46:10.259Z,17.57
2019-03-25T00:48:15.102Z,16.57
2019-03-25T00:50:20.286Z,17.60
2019-03-25T00:52:26.347Z,17.70
2019-03-25T00:54:31.438Z,16.30
2019-03-25T00:56:36.526Z,17.13
2019-03-25T00:58:41.399Z,15.93
2019-03-25T01:00:46.614Z,15.80
2019-03-25T01:02:51.777Z,16.63
2019-03-25T01:04:56.497Z,15.73
2019-03-25T01:07:02.223Z,15.40
2019-03-25T01:09:07.821Z,15.97
2019-03-25T01:11:13.115Z,15.93
2019-03-25T01:13:18.111Z,15.60
2019-03-25T01:15:23.217Z,14.20
2019-03-25T01:17:27.962Z,15.73
2019-03-25T01:19:33.274Z,14.70
2019-03-25T01:21:37.992Z,15.03
2019-03-25T01:23:42.934Z,14.07
2019-03-25T01:25:47.966Z,14.20
2019-03-25T01:27:52.714Z,15.40
2019-03-25T01:29:57.575Z,14.40
2019-03-25T01:32:02.791Z,14.10
2019-03-25T01:34:08.692Z,14.77
2019-03-25T01:36:13.408Z,14.10
2019-03-25T01:38:18.913Z,14.73
2019-03-25T01:40:24.359Z,14.80
2019-03-25T01:42:29.664Z,15.23
2019-03-25T01:44:34.881Z,14.60
2019-03-25T01:46:40.351Z,14.07
2019-03-25T01:48:45.353Z,14.37
2019-03-25T01:50:50.201Z,13.83
2019-03-25T01:52:55.103Z,13.97
2019-03-25T01:55:00.318Z,13.53
2019-03-25T01:57:05.066Z,13.10
2019-03-25T01:59:10.048Z,13.87
2019-03-25T02:01:14.958Z,13.00
2019-03-25T02:03:20.329Z,13.17
2019-03-25T02:05:25.238Z,12.73
2019-03-25T02:07:30.316Z,12.60
2019-03-25T02:09:35.190Z,12.90
2019-03-25T02:11:40.359Z,12.77
2019-03-25T02:13:45.481Z,12.40
2019-03-25T02:15:50.743Z,12.47
2019-03-25T02:17:55.887Z,13.00
2019-03-25T02:20:00.987Z,11.50
2019-03-25T02:22:05.920Z,11.73
2019-03-25T02:24:11.384Z,11.80
2019-03-25T02:26:16.413Z,12.27
2019-03-25T02:28:22.408Z,10.93
2019-03-25T02:30:27.379Z,11.80
2019-03-25T02:32:32.139Z,12.13
2019-03-25T02:34:38.075Z,11.33
2019-03-25T02:36:42.816Z,10.87
2019-03-25T02:38:48.314Z,10.83
2019-03-25T02:40:53.293Z,10.80
2019-03-25T02:42:58.354Z,10.03
2019-03-25T02:45:03.472Z,11.13
2019-03-25T02:47:08.271Z,10.93
2019-03-25T02:49:13.695Z,10.37
2019-03-25T02:51:18.683Z,10.23
2019-03-25T02:53:24.232Z,9.83
2019-03-25T02:55:40.529Z,10.30
2019-03-25T02:57:35.746Z,10.33
2019-03-25T02:59:40.604Z,10.83
2019-03-25T03:01:45.344Z,9.70
2019-03-25T03:03:51.208Z,9.57
2019-03-25T03:05:56.152Z,9.43
2019-03-25T03:08:01.369Z,10.73
2019-03-25T03:10:08.059Z,8.93
2019-03-25T03:12:13.738Z,8.97
2019-03-25T03:14:18.447Z,9.70
2019-03-25T03:16:23.548Z,9.57
2019-03-25T03:18:28.780Z,8.97
2019-03-25T03:20:33.780Z,9.17
2019-03-25T03:22:38.805Z,9.10
2019-03-25T03:24:43.953Z,9.10
2019-03-25T03:26:48.639Z,9.30
2019-03-25T03:28:53.692Z,9.57
2019-03-25T03:30:59.827Z,9.10
2019-03-25T03:33:05.068Z,8.57
2019-03-25T03:35:10.149Z,9.30
2019-03-25T03:37:14.983Z,8.83
2019-03-25T03:39:20.390Z,8.17
2019-03-25T03:41:25.376Z,8.83
2019-03-25T03:43:30.162Z,8.10
2019-03-25T03:45:35.291Z,7.97
2019-03-25T03:47:40.217Z,8.17
2019-03-25T03:49:45.392Z,8.30
2019-03-25T03:51:50.757Z,7.60
2019-03-25T03:53:56.108Z,8.37
2019-03-25T03:56:12.733Z,7.23
2019-03-25T03:58:08.076Z,7.97
2019-03-25T04:00:18.016Z,7.30
2019-03-25T04:02:23.253Z,7.20
2019-03-25T04:04:28.149Z,7.57
2019-03-25T04:06:33.309Z,6.90
2019-03-25T04:08:39.035Z,7.60
2019-03-25T04:10:43.812Z,7.90
2019-03-25T04:12:48.560Z,7.10
2019-03-25T04:14:54.688Z,7.77
2019-03-25T04:17:00.813Z,7.50
2019-03-25T04:19:07.176Z,7.13
2019-03-25T04:21:11.983Z,7.97
2019-03-25T04:23:16.772Z,7.17
2019-03-25T04:25:21.683Z,6.97
2019-03-25T04:27:26.526Z,7.57
2019-03-25T04:29:34.355Z,7.70
2019-03-25T04:31:39.320Z,6.90
2019-03-25T04:33:44.329Z,6.40
2019-03-25T04:35:49.214Z,7.47
2019-03-25T04:37:56.513Z,6.60
2019-03-25T04:40:00.823Z,6.67
2019-03-25T04:42:05.778Z,6.77
2019-03-25T04:44:10.657Z,6.60
2019-03-25T04:46:15.766Z,6.73
2019-03-25T04:48:20.730Z,6.60
2019-03-25T04:50:25.623Z,6.63
2019-03-25T04:52:30.355Z,7.07
2019-03-25T04:54:35.215Z,7.00
2019-03-25T04:56:40.312Z,6.63
2019-03-25T04:58:45.419Z,7.00
2019-03-25T05:00:50.230Z,6.77
2019-03-25T05:02:55.247Z,6.80
2019-03-25T05:05:00.111Z,6.17
2019-03-25T05:07:05.196Z,6.53
2019-03-25T05:09:10.293Z,6.47
2019-03-25T05:11:30.790Z,7.00
2019-03-25T05:13:35.878Z,5.83
2019-03-25T05:15:40.803Z,6.70
2019-03-25T05:17:46.086Z,6.07
2019-03-25T05:19:51.014Z,6.10
2019-03-25T05:21:56.026Z,6.27
2019-03-25T05:24:00.962Z,6.00
2019-03-25T05:26:05.893Z,5.70
2019-03-25T05:28:10.640Z,5.10
2019-03-25T05:30:15.878Z,5.73
2019-03-25T05:32:20.721Z,6.30
2019-03-25T05:34:25.608Z,6.13
2019-03-25T05:36:30.532Z,5.50
2019-03-25T05:38:35.730Z,5.23
2019-03-25T05:40:41.621Z,5.17
2019-03-25T05:42:46.416Z,5.33
2019-03-25T05:44:51.213Z,5.77
2019-03-25T05:46:56.467Z,5.83
2019-03-25T05:49:01.979Z,5.73
2019-03-25T05:51:07.134Z,5.90
2019-03-25T05:53:11.897Z,5.80
2019-03-25T05:55:16.569Z,5.73
2019-03-25T05:57:22.006Z,5.87
2019-03-25T05:59:26.719Z,5.33
2019-03-25T06:01:31.650Z,5.47
2019-03-25T06:03:36.907Z,4.90
2019-03-25T06:05:42.139Z,5.40
2019-03-25T06:07:47.275Z,5.03
2019-03-25T06:09:54.094Z,4.53
2019-03-25T06:11:59.007Z,5.13
2019-03-25T06:14:04.004Z,5.67
2019-03-25T06:16:09.067Z,5.00
2019-03-25T06:18:13.945Z,5.40
2019-03-25T06:20:18.695Z,4.97
2019-03-25T06:22:23.454Z,5.07
2019-03-25T06:24:28.472Z,4.30
2019-03-25T06:26:35.443Z,4.50
2019-03-25T06:28:40.326Z,5.00
2019-03-25T06:30:45.198Z,4.77
2019-03-25T06:32:49.966Z,5.13
2019-03-25T06:34:54.912Z,4.63
2019-03-25T06:36:59.610Z,4.53
2019-03-25T06:39:05.539Z,4.23
2019-03-25T06:41:10.862Z,4.63
2019-03-25T06:43:15.897Z,4.43
2019-03-25T06:45:20.837Z,5.10
2019-03-25T06:47:28.804Z,4.27
2019-03-25T06:49:33.470Z,4.90
2019-03-25T06:51:38.249Z,4.57
2019-03-25T06:53:43.295Z,4.63
2019-03-25T06:55:48.342Z,4.93
2019-03-25T06:57:54.162Z,4.67
2019-03-25T06:59:59.047Z,120.43
2019-03-25T07:02:04.154Z,204.83
2019-03-25T07:04:09.155Z,295.57
2019-03-25T07:06:14.061Z,317.37
2019-03-25T07:08:19.019Z,284.50
2019-03-25T07:10:37.094Z,263.40
2019-03-25T07:12:42.223Z,250.57
2019-03-25T07:14:47.282Z,234.90
2019-03-25T07:16:52.232Z,410.93
2019-03-25T07:18:57.237Z,589.83
2019-03-25T07:21:02.893Z,496.57
2019-03-25T07:23:07.998Z,431.10
2019-03-25T07:25:12.730Z,410.30
2019-03-25T07:27:17.479Z,392.47
2019-03-25T07:29:22.244Z,389.10
2019-03-25T07:31:26.974Z,391.33
2019-03-25T07:33:32.042Z,372.20
2019-03-25T07:35:37.194Z,367.87
2019-03-25T07:37:41.971Z,360.47
2019-03-25T07:39:47.148Z,343.00
2019-03-25T07:41:51.951Z,343.23
2019-03-25T07:43:57.245Z,323.97
2019-03-25T07:46:01.943Z,315.57
2019-03-25T07:48:07.770Z,433.43
2019-03-25T07:50:12.822Z,508.97
2019-03-25T07:52:18.030Z,535.70
2019-03-25T07:54:23.169Z,460.57
2019-03-25T07:56:28.429Z,448.83
2019-03-25T07:58:33.711Z,454.30
2019-03-25T08:00:38.481Z,458.80
2019-03-25T08:02:43.437Z,452.70
2019-03-25T08:04:48.277Z,438.80
2019-03-25T08:06:53.279Z,435.17
2019-03-25T08:09:03.678Z,423.20
2019-03-25T08:11:04.601Z,409.07
2019-03-25T08:13:09.653Z,391.43
2019-03-25T08:15:16.329Z,397.43
2019-03-25T08:17:21.744Z,475.87
2019-03-25T08:19:26.631Z,424.47
2019-03-25T08:21:33.239Z,452.20
2019-03-25T08:23:38.513Z,448.67
2019-03-25T08:25:43.551Z,471.70
2019-03-25T08:27:59.465Z,483.87
2019-03-25T08:29:56.068Z,473.90
2019-03-25T08:32:01.290Z,461.80
2019-03-25T08:34:06.012Z,450.70
2019-03-25T08:36:11.187Z,449.23
2019-03-25T08:38:16.629Z,443.27
2019-03-25T08:40:21.692Z,428.67
2019-03-25T08:42:26.471Z,426.13
2019-03-25T08:44:31.873Z,418.30
2019-03-25T08:46:36.738Z,494.80
2019-03-25T08:48:42.008Z,518.47
2019-03-25T08:50:46.806Z,490.00
2019-03-25T08:52:52.302Z,510.07
2019-03-25T08:54:57.228Z,484.40
2019-03-25T08:57:05.309Z,492.60
2019-03-25T08:59:10.302Z,557.27
2019-03-25T09:01:18.506Z,529.07
2019-03-25T09:03:25.135Z,607.93
2019-03-25T09:05:33.275Z,567.47
2019-03-25T09:07:39.362Z,548.10
2019-03-25T09:09:44.247Z,542.27
2019-03-25T09:11:51.701Z,535.27
2019-03-25T09:13:56.140Z,539.77
2019-03-25T09:16:01.627Z,527.90
2019-03-25T09:18:06.438Z,515.77
2019-03-25T09:20:11.226Z,508.60
2019-03-25T09:22:16.073Z,497.10
2019-03-25T09:24:21.103Z,495.73
2019-03-25T09:26:25.870Z,479.33
2019-03-25T09:28:31.186Z,481.83
2019-03-25T09:31:19.685Z,473.37
2019-03-25T09:33:24.515Z,456.67
2019-03-25T09:35:29.601Z,502.50
2019-03-25T09:37:34.338Z,503.80
2019-03-25T09:39:39.415Z,527.47
2019-03-25T09:41:45.065Z,516.40
2019-03-25T09:43:54.125Z,534.57
2019-03-25T09:45:59.569Z,555.73
2019-03-25T09:48:04.615Z,558.43
2019-03-25T09:50:14.194Z,546.10
2019-03-25T09:52:19.419Z,543.30
2019-03-25T09:54:24.988Z,530.67
2019-03-25T09:56:30.867Z,513.57
2019-03-25T09:58:36.770Z,522.77
2019-03-25T10:00:41.760Z,576.70
2019-03-25T10:02:47.441Z,595.77
2019-03-25T10:04:52.203Z,537.07
2019-03-25T10:06:57.515Z,548.83
2019-03-25T10:09:05.672Z,556.77
2019-03-25T10:11:14.849Z,557.57
2019-03-25T10:13:20.389Z,568.80
2019-03-25T10:15:25.591Z,620.73
2019-03-25T10:17:30.781Z,750.27
2019-03-25T10:19:35.793Z,609.80
2019-03-25T10:21:41.016Z,602.07
2019-03-25T10:23:50.187Z,611.83
2019-03-25T10:25:56.920Z,610.27
2019-03-25T10:28:02.424Z,612.07
2019-03-25T10:30:07.702Z,605.93
2019-03-25T10:32:12.897Z,599.23
2019-03-25T10:34:20.709Z,578.50
2019-03-25T10:36:25.731Z,625.63
2019-03-25T10:38:31.637Z,655.37
2019-03-25T10:40:36.719Z,619.03
2019-03-25T10:42:42.230Z,609.53
2019-03-25T10:44:47.705Z,606.50
2019-03-25T10:46:53.097Z,616.47
2019-03-25T10:48:58.067Z,608.83
2019-03-25T10:51:03.940Z,604.93
2019-03-25T10:53:09.324Z,586.53
2019-03-25T10:55:14.493Z,587.90
2019-03-25T10:57:19.319Z,585.03
2019-03-25T10:59:28.193Z,577.67
2019-03-25T11:01:33.153Z,562.17
2019-03-25T11:03:41.902Z,559.53
2019-03-25T11:05:47.062Z,743.20
2019-03-25T11:07:54.218Z,569.80
2019-03-25T11:09:59.098Z,557.57
2019-03-25T11:12:05.369Z,556.90
2019-03-25T11:14:10.390Z,583.80
2019-03-25T11:16:15.170Z,591.70
2019-03-25T11:18:20.088Z,593.07
2019-03-25T11:20:25.246Z,595.70
2019-03-25T11:22:30.571Z,576.13
2019-03-25T11:24:35.335Z,578.67
2019-03-25T11:26:40.130Z,574.70
2019-03-25T11:28:45.047Z,771.83
2019-03-25T11:31:07.187Z,621.07
2019-03-25T11:33:11.913Z,571.77
2019-03-25T11:35:16.754Z,701.13
2019-03-25T11:37:21.552Z,999.90
2019-03-25T11:39:26.347Z,588.27
2019-03-25T11:41:31.106Z,527.00
2019-03-25T11:43:35.966Z,510.07
2019-03-25T11:45:41.267Z,796.53
2019-03-25T11:47:46.111Z,719.20
2019-03-25T11:49:50.903Z,518.30
2019-03-25T11:51:55.619Z,468.03
2019-03-25T11:54:01.063Z,459.50
2019-03-25T11:56:05.889Z,484.80
2019-03-25T11:58:11.525Z,452.63
2019-03-25T12:00:17.174Z,440.07
2019-03-25T12:02:22.910Z,433.00
2019-03-25T12:04:27.841Z,432.70
2019-03-25T12:06:32.919Z,418.87
2019-03-25T12:08:39.608Z,416.30
2019-03-25T12:10:46.186Z,406.47
2019-03-25T12:12:52.357Z,400.50
2019-03-25T12:14:57.662Z,388.60
2019-03-25T12:17:02.532Z,381.13
2019-03-25T12:19:09.143Z,382.10
2019-03-25T12:21:14.033Z,374.53
2019-03-25T12:23:25.910Z,370.30
2019-03-25T12:25:25.983Z,359.07
2019-03-25T12:27:32.422Z,362.27
2019-03-25T12:29:37.496Z,352.77
2019-03-25T12:31:47.701Z,338.77
2019-03-25T12:33:52.436Z,332.77
2019-03-25T12:35:57.911Z,326.90
2019-03-25T12:38:03.006Z,331.33
2019-03-25T12:40:11.275Z,316.53
2019-03-25T12:42:17.459Z,304.60
2019-03-25T12:44:29.040Z,295.23
2019-03-25T12:46:38.369Z,284.77
2019-03-25T12:48:44.626Z,292.80
2019-03-25T12:50:49.725Z,286.00
2019-03-25T12:52:55.586Z,283.27
2019-03-25T12:55:04.446Z,279.67
2019-03-25T12:57:09.377Z,279.00
2019-03-25T12:59:14.080Z,273.20
2019-03-25T13:01:21.055Z,261.57
2019-03-25T13:03:25.979Z,250.60
2019-03-25T13:05:30.755Z,254.63
2019-03-25T13:07:35.644Z,251.23
2019-03-25T13:09:41.371Z,240.43
2019-03-25T13:11:47.803Z,247.10
2019-03-25T13:13:52.922Z,237.37
2019-03-25T13:15:57.945Z,231.17
2019-03-25T13:18:03.382Z,219.03
2019-03-25T13:20:08.144Z,221.17
2019-03-25T13:22:13.166Z,216.27
2019-03-25T13:24:18.077Z,216.13
2019-03-25T13:26:22.829Z,208.60
2019-03-25T13:28:28.190Z,198.67
2019-03-25T13:30:33.518Z,196.37
2019-03-25T13:32:38.253Z,191.07
2019-03-25T13:34:43.222Z,190.40
2019-03-25T13:36:48.156Z,183.77
2019-03-25T13:38:52.944Z,184.47
2019-03-25T13:40:57.787Z,176.67
2019-03-25T13:43:02.615Z,174.00
2019-03-25T13:45:09.475Z,375.90
2019-03-25T13:47:14.239Z,334.67
2019-03-25T13:49:19.063Z,413.47
2019-03-25T13:51:23.875Z,180.03
2019-03-25T13:53:28.673Z,152.27
2019-03-25T13:55:33.449Z,147.67
2019-03-25T13:57:38.333Z,145.73
2019-03-25T13:59:43.143Z,139.67
2019-03-25T14:01:48.009Z,150.23
2019-03-25T14:03:52.812Z,166.67
2019-03-25T14:05:57.697Z,160.47
2019-03-25T14:08:02.508Z,448.20
2019-03-25T14:10:08.405Z,223.00
2019-03-25T14:12:13.262Z,349.43
2019-03-25T14:14:18.089Z,235.03
2019-03-25T14:16:24.722Z,240.90
2019-03-25T14:18:29.678Z,230.60
2019-03-25T14:20:34.699Z,228.87
2019-03-25T14:22:44.161Z,207.20
2019-03-25T14:24:50.366Z,209.40
2019-03-25T14:26:55.433Z,202.53
2019-03-25T14:29:03.813Z,420.33
2019-03-25T14:31:09.275Z,999.90
2019-03-25T14:33:14.154Z,637.87
2019-03-25T14:35:19.371Z,301.97
2019-03-25T14:37:24.145Z,224.27
2019-03-25T14:39:28.962Z,487.10
2019-03-25T14:41:34.157Z,213.50
2019-03-25T14:43:39.241Z,181.73
2019-03-25T14:45:44.186Z,168.17
2019-03-25T14:47:48.962Z,161.53
2019-03-25T14:49:54.514Z,159.10
2019-03-25T14:51:59.410Z,156.87
2019-03-25T14:54:06.698Z,146.77
2019-03-25T14:56:11.952Z,145.97
2019-03-25T14:58:17.162Z,144.80
2019-03-25T15:00:25.372Z,142.33
2019-03-25T15:02:28.765Z,323.63
2019-03-25T15:04:33.613Z,999.90
2019-03-25T15:06:38.459Z,999.90
2019-03-25T15:08:43.371Z,836.03
2019-03-25T15:10:53.612Z,537.53
2019-03-25T15:12:54.698Z,291.23
2019-03-25T15:14:59.594Z,165.63
2019-03-25T15:17:05.185Z,152.83
2019-03-25T15:19:10.273Z,191.23
2019-03-25T15:21:15.026Z,127.37
2019-03-25T15:23:20.536Z,122.37
2019-03-25T15:25:25.486Z,115.40
2019-03-25T15:27:30.529Z,110.53
2019-03-25T15:29:36.089Z,109.90
2019-03-25T15:31:41.842Z,105.70
2019-03-25T15:33:46.821Z,103.50
2019-03-25T15:35:52.755Z,98.67
2019-03-25T15:38:08.476Z,113.57
2019-03-25T15:40:13.805Z,97.50
2019-03-25T15:42:18.702Z,111.60
2019-03-25T15:44:23.426Z,138.30
2019-03-25T15:46:28.371Z,177.73
2019-03-25T15:48:33.181Z,230.37
2019-03-25T15:50:38.261Z,236.43
2019-03-25T15:52:43.178Z,230.87
2019-03-25T15:54:48.417Z,235.10
2019-03-25T15:56:53.446Z,223.17
2019-03-25T15:58:58.434Z,213.30
2019-03-25T16:01:03.408Z,227.33
2019-03-25T16:03:08.126Z,240.80
2019-03-25T16:05:13.168Z,292.33
2019-03-25T16:07:17.954Z,307.00
2019-03-25T16:09:22.975Z,319.07
2019-03-25T16:11:30.484Z,320.27
2019-03-25T16:13:36.676Z,743.00
2019-03-25T16:15:44.059Z,547.00
2019-03-25T16:17:52.837Z,371.40
2019-03-25T16:20:07.511Z,344.30
2019-03-25T16:22:14.961Z,396.87
2019-03-25T16:24:22.470Z,378.10
2019-03-25T16:26:28.195Z,377.70
2019-03-25T16:28:33.744Z,380.93
2019-03-25T16:30:45.558Z,363.87
2019-03-25T16:32:51.531Z,362.50
2019-03-25T16:34:59.652Z,353.20
2019-03-25T16:37:25.670Z,345.40
2019-03-25T16:39:34.494Z,350.20
2019-03-25T16:41:41.055Z,447.83
2019-03-25T16:43:47.933Z,425.47
2019-03-25T16:45:56.707Z,492.90
2019-03-25T16:48:02.194Z,529.53
2019-03-25T16:50:12.234Z,495.67
2019-03-25T16:52:17.399Z,483.00
2019-03-25T16:54:22.254Z,489.53
2019-03-25T16:56:27.171Z,952.03
2019-03-25T16:58:34.270Z,662.30
2019-03-25T17:00:40.010Z,544.70
2019-03-25T17:02:47.175Z,492.97
2019-03-25T17:04:52.769Z,442.80
2019-03-25T17:07:00.663Z,440.60
2019-03-25T17:09:15.117Z,432.37
2019-03-25T17:11:20.254Z,417.37
2019-03-25T17:13:25.574Z,412.80
2019-03-25T17:15:36.361Z,397.43
2019-03-25T17:17:43.056Z,392.07
2019-03-25T17:19:48.465Z,387.73
2019-03-25T17:21:58.353Z,376.80
2019-03-25T17:24:09.384Z,449.53
2019-03-25T17:26:15.688Z,522.90
2019-03-25T17:28:21.980Z,422.60
2019-03-25T17:30:28.792Z,497.70
2019-03-25T17:32:34.026Z,394.40
2019-03-25T17:34:40.491Z,397.97
2019-03-25T17:36:45.493Z,482.43
2019-03-25T17:38:51.087Z,353.10
2019-03-25T17:40:56.699Z,549.23
2019-03-25T17:43:03.102Z,345.20
2019-03-25T17:45:09.438Z,367.47
2019-03-25T17:47:14.723Z,401.80
2019-03-25T17:49:21.571Z,392.20
2019-03-25T17:51:30.053Z,321.07
2019-03-25T17:53:38.560Z,302.60
2019-03-25T17:55:47.504Z,286.17
2019-03-25T17:57:52.904Z,273.47
2019-03-25T17:59:58.940Z,272.33
2019-03-25T18:02:06.349Z,398.70
2019-03-25T18:04:19.162Z,324.50
2019-03-25T18:06:24.426Z,355.50
2019-03-25T18:08:29.182Z,420.97
2019-03-25T18:10:34.669Z,431.77
2019-03-25T18:12:40.034Z,458.60
2019-03-25T18:14:44.887Z,453.70
2019-03-25T18:16:49.732Z,443.90
2019-03-25T18:18:54.535Z,425.27
2019-03-25T18:20:59.466Z,414.97
2019-03-25T18:23:05.623Z,403.63
2019-03-25T18:25:10.745Z,393.50
2019-03-25T18:27:16.235Z,388.00
2019-03-25T18:29:20.969Z,374.03
2019-03-25T18:31:26.407Z,371.07
2019-03-25T18:33:33.821Z,381.53
2019-03-25T18:35:42.100Z,607.47
2019-03-25T18:37:47.545Z,662.10
2019-03-25T18:39:53.341Z,468.87
2019-03-25T18:41:58.418Z,686.83
2019-03-25T18:44:04.884Z,441.53
2019-03-25T18:46:10.476Z,362.33
2019-03-25T18:48:15.869Z,351.27
2019-03-25T18:50:20.634Z,328.47
2019-03-25T18:52:26.735Z,323.43
2019-03-25T18:54:31.733Z,314.27
2019-03-25T18:56:39.267Z,298.10
2019-03-25T18:58:47.400Z,286.43
2019-03-25T19:00:52.767Z,286.40
2019-03-25T19:02:57.731Z,279.13
2019-03-25T19:05:04.659Z,269.60
2019-03-25T19:07:09.597Z,260.53
2019-03-25T19:09:15.807Z,414.80
2019-03-25T19:11:30.812Z,344.10
2019-03-25T19:16:54.783Z,561.63
2019-03-25T19:19:00.112Z,452.77
2019-03-25T19:21:05.625Z,444.90
2019-03-25T19:23:11.633Z,429.40
2019-03-25T19:25:18.417Z,428.53
2019-03-25T19:27:23.314Z,408.83
2019-03-25T19:29:28.188Z,416.07
2019-03-25T19:31:34.424Z,394.00
2019-03-25T19:33:42.683Z,406.47
2019-03-25T19:35:47.697Z,387.63
2019-03-25T19:37:52.959Z,386.17
2019-03-25T19:39:59.422Z,352.37
2019-03-25T19:42:13.940Z,347.30
2019-03-25T19:44:22.229Z,343.73
2019-03-25T19:46:27.281Z,339.83
2019-03-25T19:48:32.151Z,337.93
2019-03-25T19:50:40.121Z,319.67
2019-03-25T19:52:46.286Z,312.40
2019-03-25T19:54:53.728Z,307.13
2019-03-25T19:57:28.572Z,307.87
2019-03-25T19:59:41.172Z,334.73
2019-03-25T20:01:47.024Z,382.80
2019-03-25T20:04:02.855Z,354.87
2019-03-25T20:06:11.313Z,413.80
2019-03-25T20:08:16.335Z,533.50
2019-03-25T20:10:42.157Z,504.67
2019-03-25T20:12:48.653Z,485.80
2019-03-25T20:14:58.537Z,463.10
2019-03-25T20:17:22.700Z,457.20
2019-03-25T20:19:28.313Z,443.53
2019-03-25T20:21:35.401Z,432.67
2019-03-25T20:23:42.063Z,414.93
2019-03-25T20:25:59.527Z,414.07
2019-03-25T20:28:10.166Z,424.87
2019-03-25T20:30:17.580Z,522.57
2019-03-25T20:32:31.631Z,592.67
2019-03-25T20:34:40.636Z,533.53
2019-03-25T20:36:48.033Z,570.20
2019-03-25T20:38:58.372Z,522.20
2019-03-25T20:41:08.167Z,556.03
2019-03-25T20:43:14.034Z,533.10
2019-03-25T20:45:21.011Z,490.43
2019-03-25T20:47:25.850Z,473.97
2019-03-25T20:49:31.177Z,464.80
2019-03-25T20:51:39.236Z,457.13
2019-03-25T20:53:44.354Z,444.23
2019-03-25T20:55:49.871Z,444.80
2019-03-25T20:57:56.608Z,440.17
2019-03-25T21:00:01.391Z,652.47
2019-03-25T21:02:07.241Z,504.73
2019-03-25T21:04:12.484Z,459.03
2019-03-25T21:06:17.609Z,430.00
2019-03-25T21:08:22.629Z,420.23
2019-03-25T21:13:05.782Z,425.07
2019-03-25T21:15:11.101Z,422.07
2019-03-25T21:17:17.112Z,405.23
2019-03-25T21:19:22.585Z,400.77
2019-03-25T21:21:27.884Z,392.07
2019-03-25T21:23:33.675Z,386.20
2019-03-25T21:25:39.477Z,384.60
2019-03-25T21:27:44.692Z,380.50
2019-03-25T21:29:49.661Z,373.23
2019-03-25T21:31:55.917Z,375.30
2019-03-25T21:34:00.913Z,375.77
2019-03-25T21:36:06.780Z,370.10
2019-03-25T21:38:13.159Z,365.67
2019-03-25T21:40:18.255Z,356.73
2019-03-25T21:42:23.531Z,359.50
2019-03-25T21:44:29.254Z,355.97
2019-03-25T21:46:34.219Z,344.90
2019-03-25T21:48:40.044Z,347.50
2019-03-25T21:50:45.049Z,344.67
2019-03-25T21:52:50.199Z,341.63
2019-03-25T21:54:55.219Z,337.57
2019-03-25T21:57:00.681Z,337.27
2019-03-25T21:59:05.925Z,334.03
2019-03-25T22:01:11.074Z,323.63
2019-03-25T22:03:15.908Z,322.33
2019-03-25T22:05:20.948Z,326.77
2019-03-25T22:07:26.318Z,320.17
2019-03-25T22:09:31.718Z,313.23
2019-03-25T22:11:36.818Z,368.37
2019-03-25T22:13:41.832Z,325.90
2019-03-25T22:15:46.784Z,320.40
2019-03-25T22:17:51.481Z,324.33
2019-03-25T22:19:56.244Z,511.17
2019-03-25T22:22:01.224Z,486.10
2019-03-25T22:24:06.478Z,342.90
2019-03-25T22:26:11.225Z,345.40
2019-03-25T22:28:15.968Z,353.50
2019-03-25T22:30:20.944Z,300.77
2019-03-25T22:32:25.725Z,294.10
2019-03-25T22:34:30.542Z,447.33
2019-03-25T22:36:35.338Z,407.97
2019-03-25T22:38:40.122Z,441.63
2019-03-25T22:40:46.531Z,443.73
2019-03-25T22:42:53.055Z,466.90
2019-03-25T22:44:57.787Z,471.80
2019-03-25T22:47:02.621Z,464.00
2019-03-25T22:49:07.354Z,455.97
2019-03-25T22:51:12.053Z,446.77
2019-03-25T22:53:23.577Z,448.40
2019-03-25T22:55:28.415Z,703.50
2019-03-25T22:57:33.138Z,609.83
2019-03-25T22:59:37.944Z,656.53
2019-03-25T23:01:42.663Z,510.13
2019-03-25T23:03:47.556Z,430.33
2019-03-25T23:05:53.159Z,407.53
2019-03-25T23:07:57.860Z,405.33
2019-03-25T23:10:02.814Z,490.37
2019-03-25T23:12:07.557Z,512.57
2019-03-25T23:14:12.335Z,459.30
2019-03-25T23:16:17.253Z,484.57
2019-03-25T23:18:22.220Z,458.97
2019-03-25T23:20:28.074Z,483.93
2019-03-25T23:22:33.224Z,512.73
2019-03-25T23:24:37.986Z,505.03
2019-03-25T23:26:43.816Z,508.57
2019-03-25T23:28:48.636Z,477.00
2019-03-25T23:30:53.435Z,489.70
2019-03-25T23:32:58.572Z,470.17
2019-03-25T23:35:03.530Z,471.10
2019-03-25T23:37:08.353Z,463.90
2019-03-25T23:39:13.059Z,453.93
2019-03-25T23:41:17.844Z,452.80
2019-03-25T23:43:22.584Z,452.37
2019-03-25T23:45:27.316Z,443.93
2019-03-25T23:47:32.093Z,438.37
2019-03-25T23:49:36.973Z,429.13
2019-03-25T23:51:42.067Z,436.70
2019-03-25T23:53:46.984Z,427.73
2019-03-25T23:55:51.722Z,422.47
2019-03-25T23:57:56.788Z,425.43
